EJA710 KBOS-KRDU
Flight info
| Callsign | EJA710 |
|---|---|
| Flight time | 2h 4m |
| Altitude | 40000 |
| Route | SSOXS7 SSOXS Q167 ZJAAY TAQLE3 |
| Aircraft | CL60/M-SADE3FGHIJ3J4J7P2RWXY/HB1D1 |
Departure
| Time | 2026-05-07 00:32 |
|---|---|
| Airport | Boston Logan International Airport (KBOS) |
Arrival
| Time | 2026-05-07 02:36 |
|---|---|
| Airport | Raleigh-Durham International Airport (KRDU) |
| Time | Latitude | Longitude | Altitude | Speed | Heading |
|---|---|---|---|---|---|
| 2026-05-06 23:59 | 42.37416 | -71.02065 | 14 ft | 0 kts | 314° |
| 2026-05-07 00:21 | 42.37417 | -71.02066 | 14 ft | 1 kts | 314° |
| 2026-05-07 00:22 | 42.37433 | -71.02049 | 14 ft | 6 kts | 72° |
| 2026-05-07 00:22 | 42.37413 | -71.01978 | 14 ft | 9 kts | 132° |
| 2026-05-07 00:22 | 42.37358 | -71.01905 | 14 ft | 12 kts | 134° |
| 2026-05-07 00:22 | 42.37279 | -71.01800 | 14 ft | 20 kts | 135° |
| 2026-05-07 00:23 | 42.37177 | -71.01667 | 14 ft | 21 kts | 134° |
| 2026-05-07 00:23 | 42.37051 | -71.01498 | 13 ft | 26 kts | 136° |
| 2026-05-07 00:23 | 42.36929 | -71.01333 | 14 ft | 19 kts | 126° |
| 2026-05-07 00:23 | 42.36932 | -71.01211 | 14 ft | 14 kts | 77° |
| 2026-05-07 00:24 | 42.36998 | -71.01102 | 14 ft | 17 kts | 26° |
| 2026-05-07 00:24 | 42.37140 | -71.01010 | 11 ft | 28 kts | 26° |
| 2026-05-07 00:24 | 42.37349 | -71.00879 | 11 ft | 35 kts | 19° |
| 2026-05-07 00:24 | 42.37571 | -71.00772 | 11 ft | 20 kts | 19° |
| 2026-05-07 00:25 | 42.37691 | -71.00716 | 11 ft | 9 kts | 20° |
| 2026-05-07 00:25 | 42.37711 | -71.00706 | 11 ft | 6 kts | 20° |
| 2026-05-07 00:25 | 42.37730 | -71.00697 | 11 ft | 0 kts | 20° |
| 2026-05-07 00:26 | 42.37735 | -71.00695 | 11 ft | 2 kts | 20° |
| 2026-05-07 00:26 | 42.37745 | -71.00691 | 11 ft | 1 kts | 19° |
| 2026-05-07 00:26 | 42.37747 | -71.00689 | 11 ft | 0 kts | 19° |
| 2026-05-07 00:27 | 42.37768 | -71.00679 | 11 ft | 6 kts | 20° |
| 2026-05-07 00:27 | 42.37824 | -71.00650 | 11 ft | 10 kts | 31° |
| 2026-05-07 00:27 | 42.37837 | -71.00633 | 11 ft | 0 kts | 62° |
| 2026-05-07 00:27 | 42.37838 | -71.00623 | 11 ft | 0 kts | 82° |
| 2026-05-07 00:28 | 42.37841 | -71.00590 | 11 ft | 6 kts | 91° |
| 2026-05-07 00:28 | 42.37837 | -71.00565 | 11 ft | 0 kts | 111° |
| 2026-05-07 00:30 | 42.37836 | -71.00561 | 11 ft | 3 kts | 111° |
| 2026-05-07 00:30 | 42.37806 | -71.00486 | 11 ft | 16 kts | 141° |
| 2026-05-07 00:30 | 42.37703 | -71.00513 | 11 ft | 16 kts | 200° |
| 2026-05-07 00:31 | 42.37608 | -71.00558 | 11 ft | 0 kts | 199° |
| 2026-05-07 00:31 | 42.37497 | -71.00609 | 11 ft | 63 kts | 199° |
| 2026-05-07 00:31 | 42.36737 | -71.00973 | 110 ft | 150 kts | 200° |
| 2026-05-07 00:32 | 42.35705 | -71.01497 | 1003 ft | 166 kts | 202° |
| 2026-05-07 00:32 | 42.34672 | -71.01860 | 2327 ft | 164 kts | 189° |
| 2026-05-07 00:32 | 42.33533 | -71.01436 | 3306 ft | 194 kts | 155° |
| 2026-05-07 00:32 | 42.32600 | -70.99967 | 4323 ft | 222 kts | 128° |
| 2026-05-07 00:33 | 42.31752 | -70.98202 | 5640 ft | 224 kts | 129° |
| 2026-05-07 00:33 | 42.31193 | -70.96369 | 7096 ft | 223 kts | 102° |
| 2026-05-07 00:33 | 42.31337 | -70.94222 | 8123 ft | 239 kts | 72° |
| 2026-05-07 00:33 | 42.31761 | -70.91955 | 8814 ft | 261 kts | 82° |
| 2026-05-07 00:34 | 42.32103 | -70.89475 | 9573 ft | 279 kts | 84° |
| 2026-05-07 00:34 | 42.32400 | -70.86833 | 10409 ft | 291 kts | 84° |
| 2026-05-07 00:34 | 42.32721 | -70.84078 | 11396 ft | 294 kts | 84° |
| 2026-05-07 00:34 | 42.33009 | -70.81353 | 12408 ft | 297 kts | 88° |
| 2026-05-07 00:35 | 42.32838 | -70.78583 | 12920 ft | 307 kts | 116° |
| 2026-05-07 00:35 | 42.31843 | -70.75951 | 13457 ft | 321 kts | 126° |
| 2026-05-07 00:35 | 42.30875 | -70.73178 | 14395 ft | 329 kts | 120° |
| 2026-05-07 00:35 | 42.29944 | -70.70358 | 15350 ft | 326 kts | 127° |
| 2026-05-07 00:36 | 42.28473 | -70.68156 | 15974 ft | 317 kts | 153° |
| 2026-05-07 00:36 | 42.26508 | -70.67074 | 16817 ft | 296 kts | 179° |
| 2026-05-07 00:36 | 42.24464 | -70.66593 | 17647 ft | 304 kts | 170° |
| 2026-05-07 00:36 | 42.22516 | -70.65609 | 18845 ft | 293 kts | 169° |
| 2026-05-07 00:37 | 42.20600 | -70.64668 | 19379 ft | 306 kts | 170° |
| 2026-05-07 00:37 | 42.18498 | -70.63674 | 19699 ft | 326 kts | 169° |
| 2026-05-07 00:37 | 42.16316 | -70.62646 | 20313 ft | 337 kts | 170° |
| 2026-05-07 00:37 | 42.14063 | -70.61915 | 21249 ft | 322 kts | 186° |
| 2026-05-07 00:38 | 42.11889 | -70.62198 | 21937 ft | 313 kts | 203° |
| 2026-05-07 00:38 | 42.09758 | -70.63117 | 22185 ft | 329 kts | 207° |
| 2026-05-07 00:38 | 42.07497 | -70.64140 | 22468 ft | 348 kts | 207° |
| 2026-05-07 00:38 | 42.05147 | -70.65189 | 22776 ft | 361 kts | 207° |
| 2026-05-07 00:39 | 42.02728 | -70.66262 | 23312 ft | 369 kts | 206° |
| 2026-05-07 00:39 | 42.00267 | -70.67347 | 24020 ft | 372 kts | 207° |
| 2026-05-07 00:39 | 41.97813 | -70.68426 | 24754 ft | 373 kts | 207° |
| 2026-05-07 00:39 | 41.95313 | -70.69523 | 25517 ft | 373 kts | 208° |
| 2026-05-07 00:40 | 41.92831 | -70.70615 | 26150 ft | 376 kts | 208° |
| 2026-05-07 00:40 | 41.90346 | -70.71703 | 26819 ft | 377 kts | 208° |
| 2026-05-07 00:40 | 41.87841 | -70.72802 | 27408 ft | 379 kts | 209° |
| 2026-05-07 00:40 | 41.85317 | -70.73909 | 27936 ft | 382 kts | 208° |
| 2026-05-07 00:41 | 41.82861 | -70.75213 | 28418 ft | 373 kts | 217° |
| 2026-05-07 00:41 | 41.80609 | -70.76897 | 28935 ft | 372 kts | 219° |
| 2026-05-07 00:41 | 41.78315 | -70.78634 | 29363 ft | 376 kts | 219° |
| 2026-05-07 00:41 | 41.76026 | -70.80359 | 29815 ft | 378 kts | 219° |
| 2026-05-07 00:42 | 41.73741 | -70.82079 | 30249 ft | 379 kts | 219° |
| 2026-05-07 00:42 | 41.71401 | -70.83841 | 30594 ft | 383 kts | 219° |
| 2026-05-07 00:42 | 41.69072 | -70.85590 | 30935 ft | 386 kts | 219° |
| 2026-05-07 00:42 | 41.66729 | -70.87350 | 31245 ft | 389 kts | 219° |
| 2026-05-07 00:43 | 41.64360 | -70.89124 | 31614 ft | 390 kts | 219° |
| 2026-05-07 00:43 | 41.61974 | -70.90909 | 31973 ft | 390 kts | 219° |
| 2026-05-07 00:43 | 41.59571 | -70.92705 | 32246 ft | 393 kts | 219° |
| 2026-05-07 00:43 | 41.57205 | -70.94569 | 32503 ft | 390 kts | 223° |
| 2026-05-07 00:44 | 41.55111 | -70.96743 | 32771 ft | 382 kts | 231° |
| 2026-05-07 00:44 | 41.53297 | -70.99282 | 33130 ft | 372 kts | 238° |
| 2026-05-07 00:44 | 41.51790 | -71.02040 | 33553 ft | 365 kts | 243° |
| 2026-05-07 00:44 | 41.50378 | -71.04868 | 34083 ft | 360 kts | 243° |
| 2026-05-07 00:45 | 41.48991 | -71.07636 | 34616 ft | 355 kts | 243° |
| 2026-05-07 00:45 | 41.47623 | -71.10365 | 34989 ft | 354 kts | 244° |
| 2026-05-07 00:45 | 41.46231 | -71.13145 | 35099 ft | 359 kts | 243° |
| 2026-05-07 00:45 | 41.44838 | -71.15926 | 35203 ft | 362 kts | 243° |
| 2026-05-07 00:46 | 41.41997 | -71.21585 | 35407 ft | 369 kts | 243° |
| 2026-05-07 00:46 | 41.40564 | -71.24432 | 35515 ft | 371 kts | 243° |
| 2026-05-07 00:46 | 41.39124 | -71.27291 | 35617 ft | 373 kts | 243° |
| 2026-05-07 00:47 | 41.37665 | -71.30185 | 35720 ft | 375 kts | 243° |
| 2026-05-07 00:47 | 41.36213 | -71.33061 | 35814 ft | 376 kts | 243° |
| 2026-05-07 00:47 | 41.34732 | -71.35996 | 35922 ft | 377 kts | 243° |
| 2026-05-07 00:47 | 41.33274 | -71.38883 | 36021 ft | 378 kts | 244° |
| 2026-05-07 00:48 | 41.30334 | -71.44696 | 36224 ft | 379 kts | 243° |
| 2026-05-07 00:48 | 41.28847 | -71.47632 | 36330 ft | 380 kts | 243° |
| 2026-05-07 00:48 | 41.27361 | -71.50563 | 36430 ft | 380 kts | 243° |
| 2026-05-07 00:49 | 41.25881 | -71.53477 | 36532 ft | 380 kts | 244° |
| 2026-05-07 00:49 | 41.24410 | -71.56376 | 36637 ft | 380 kts | 243° |
| 2026-05-07 00:49 | 41.22946 | -71.59255 | 36743 ft | 380 kts | 243° |
| 2026-05-07 00:49 | 41.21449 | -71.62196 | 36843 ft | 380 kts | 243° |
| 2026-05-07 00:50 | 41.19982 | -71.65076 | 36947 ft | 380 kts | 243° |
| 2026-05-07 00:50 | 41.18499 | -71.67985 | 37040 ft | 380 kts | 243° |
| 2026-05-07 00:50 | 41.17023 | -71.70877 | 37148 ft | 381 kts | 244° |
| 2026-05-07 00:50 | 41.15535 | -71.73792 | 37252 ft | 381 kts | 244° |
| 2026-05-07 00:51 | 41.12541 | -71.79671 | 37451 ft | 382 kts | 244° |
| 2026-05-07 00:51 | 41.09592 | -71.85469 | 37658 ft | 382 kts | 244° |
| 2026-05-07 00:52 | 41.06620 | -71.91300 | 37859 ft | 381 kts | 244° |
| 2026-05-07 00:52 | 41.03680 | -71.97100 | 38062 ft | 378 kts | 246° |
| 2026-05-07 00:53 | 41.02483 | -72.00140 | 38172 ft | 372 kts | 252° |
| 2026-05-07 00:53 | 41.01420 | -72.03191 | 38275 ft | 372 kts | 251° |
| 2026-05-07 00:53 | 41.00330 | -72.06302 | 38384 ft | 371 kts | 251° |
| 2026-05-07 00:53 | 40.99252 | -72.09369 | 38480 ft | 371 kts | 251° |
| 2026-05-07 00:54 | 40.98155 | -72.12483 | 38587 ft | 370 kts | 252° |
| 2026-05-07 00:54 | 40.97059 | -72.15591 | 38682 ft | 370 kts | 251° |
| 2026-05-07 00:54 | 40.95996 | -72.18604 | 38787 ft | 369 kts | 251° |
| 2026-05-07 00:54 | 40.94893 | -72.21726 | 38892 ft | 368 kts | 251° |
| 2026-05-07 00:55 | 40.92722 | -72.27832 | 39094 ft | 367 kts | 250° |
| 2026-05-07 00:55 | 40.91431 | -72.30774 | 39208 ft | 373 kts | 244° |
| 2026-05-07 00:55 | 40.89790 | -72.33462 | 39630 ft | 374 kts | 237° |
| 2026-05-07 00:56 | 40.87956 | -72.35908 | 39855 ft | 374 kts | 236° |
| 2026-05-07 00:56 | 40.86104 | -72.38326 | 39864 ft | 375 kts | 236° |
| 2026-05-07 00:56 | 40.82343 | -72.43242 | 39864 ft | 380 kts | 236° |
| 2026-05-07 00:57 | 40.78445 | -72.48017 | 39863 ft | 391 kts | 232° |
| 2026-05-07 00:57 | 40.74173 | -72.52638 | 39863 ft | 395 kts | 231° |
| 2026-05-07 00:58 | 40.69892 | -72.57268 | 39871 ft | 399 kts | 231° |
| 2026-05-07 00:58 | 40.65690 | -72.62033 | 39867 ft | 401 kts | 232° |
| 2026-05-07 00:59 | 40.59332 | -72.69338 | 39862 ft | 405 kts | 232° |
| 2026-05-07 01:00 | 40.55045 | -72.74251 | 39864 ft | 405 kts | 232° |
| 2026-05-07 01:00 | 40.50797 | -72.79110 | 39864 ft | 404 kts | 233° |
| 2026-05-07 01:01 | 40.46566 | -72.83942 | 39862 ft | 402 kts | 233° |
| 2026-05-07 01:01 | 40.42307 | -72.88802 | 39853 ft | 403 kts | 232° |
| 2026-05-07 01:02 | 40.38065 | -72.93632 | 39859 ft | 404 kts | 233° |
| 2026-05-07 01:02 | 40.33818 | -72.98461 | 39852 ft | 403 kts | 232° |
| 2026-05-07 01:03 | 40.29561 | -73.03294 | 39865 ft | 404 kts | 233° |
| 2026-05-07 01:03 | 40.25300 | -73.08119 | 39878 ft | 402 kts | 233° |
| 2026-05-07 01:04 | 40.21035 | -73.12946 | 39876 ft | 403 kts | 233° |
| 2026-05-07 01:04 | 40.16757 | -73.17777 | 39873 ft | 404 kts | 233° |
| 2026-05-07 01:05 | 40.12499 | -73.22575 | 39876 ft | 403 kts | 233° |
| 2026-05-07 01:05 | 40.08234 | -73.27373 | 39868 ft | 403 kts | 233° |
| 2026-05-07 01:06 | 40.03989 | -73.32130 | 39856 ft | 400 kts | 233° |
| 2026-05-07 01:06 | 39.99757 | -73.36868 | 39853 ft | 399 kts | 233° |
| 2026-05-07 01:07 | 39.95533 | -73.41588 | 39863 ft | 398 kts | 234° |
| 2026-05-07 01:07 | 39.91314 | -73.46297 | 39860 ft | 398 kts | 234° |
| 2026-05-07 01:08 | 39.87087 | -73.51005 | 39853 ft | 399 kts | 234° |
| 2026-05-07 01:08 | 39.82857 | -73.55714 | 39864 ft | 400 kts | 233° |
| 2026-05-07 01:09 | 39.78630 | -73.60422 | 39860 ft | 400 kts | 233° |
| 2026-05-07 01:09 | 39.74391 | -73.65131 | 39875 ft | 399 kts | 233° |
| 2026-05-07 01:10 | 39.70151 | -73.69837 | 39865 ft | 400 kts | 233° |
| 2026-05-07 01:10 | 39.65879 | -73.74570 | 39872 ft | 401 kts | 233° |
| 2026-05-07 01:11 | 39.61614 | -73.79288 | 39871 ft | 402 kts | 233° |
| 2026-05-07 01:11 | 39.57330 | -73.84018 | 39870 ft | 403 kts | 233° |
| 2026-05-07 01:12 | 39.53050 | -73.88734 | 39869 ft | 402 kts | 232° |
| 2026-05-07 01:12 | 39.48774 | -73.93436 | 39870 ft | 401 kts | 233° |
| 2026-05-07 01:13 | 39.44528 | -73.98100 | 39868 ft | 401 kts | 233° |
| 2026-05-07 01:13 | 39.40263 | -74.02776 | 39875 ft | 401 kts | 233° |
| 2026-05-07 01:14 | 39.36001 | -74.07437 | 39877 ft | 401 kts | 234° |
| 2026-05-07 01:14 | 39.31733 | -74.12098 | 39879 ft | 402 kts | 233° |
| 2026-05-07 01:15 | 39.27431 | -74.16788 | 39874 ft | 404 kts | 232° |
| 2026-05-07 01:15 | 39.23105 | -74.21493 | 39881 ft | 403 kts | 233° |
| 2026-05-07 01:16 | 39.18821 | -74.26145 | 39882 ft | 403 kts | 233° |
| 2026-05-07 01:16 | 39.14512 | -74.30817 | 39882 ft | 402 kts | 233° |
| 2026-05-07 01:17 | 39.10646 | -74.35777 | 39884 ft | 380 kts | 246° |
| 2026-05-07 01:17 | 39.09364 | -74.38669 | 39884 ft | 369 kts | 255° |
| 2026-05-07 01:17 | 39.08457 | -74.41755 | 39876 ft | 365 kts | 258° |
| 2026-05-07 01:18 | 39.06795 | -74.47945 | 39866 ft | 365 kts | 258° |
| 2026-05-07 01:18 | 39.05130 | -74.54112 | 39660 ft | 363 kts | 259° |
| 2026-05-07 01:18 | 39.04298 | -74.57196 | 39416 ft | 365 kts | 258° |
| 2026-05-07 01:19 | 39.03457 | -74.60323 | 39203 ft | 366 kts | 257° |
| 2026-05-07 01:19 | 39.02630 | -74.63390 | 39018 ft | 366 kts | 258° |
| 2026-05-07 01:19 | 39.01797 | -74.66490 | 38801 ft | 367 kts | 258° |
| 2026-05-07 01:19 | 39.00970 | -74.69602 | 38586 ft | 367 kts | 258° |
| 2026-05-07 01:20 | 39.00147 | -74.72721 | 38382 ft | 369 kts | 258° |
| 2026-05-07 01:20 | 38.99318 | -74.75854 | 38245 ft | 368 kts | 257° |
| 2026-05-07 01:20 | 38.98522 | -74.78982 | 38092 ft | 368 kts | 258° |
| 2026-05-07 01:20 | 38.97715 | -74.82140 | 37959 ft | 368 kts | 258° |
| 2026-05-07 01:21 | 38.96902 | -74.85246 | 37816 ft | 369 kts | 258° |
| 2026-05-07 01:21 | 38.96096 | -74.88387 | 37709 ft | 368 kts | 258° |
| 2026-05-07 01:21 | 38.95304 | -74.91499 | 37503 ft | 369 kts | 258° |
| 2026-05-07 01:21 | 38.94515 | -74.94672 | 37332 ft | 369 kts | 259° |
| 2026-05-07 01:22 | 38.93745 | -74.97785 | 37180 ft | 370 kts | 258° |
| 2026-05-07 01:22 | 38.92963 | -75.00937 | 37034 ft | 370 kts | 258° |
| 2026-05-07 01:22 | 38.92171 | -75.04092 | 36883 ft | 370 kts | 257° |
| 2026-05-07 01:23 | 38.90644 | -75.10384 | 36612 ft | 369 kts | 258° |
| 2026-05-07 01:23 | 38.89917 | -75.13569 | 36433 ft | 368 kts | 261° |
| 2026-05-07 01:23 | 38.89574 | -75.16779 | 36231 ft | 364 kts | 270° |
| 2026-05-07 01:23 | 38.89763 | -75.20037 | 36013 ft | 365 kts | 279° |
| 2026-05-07 01:24 | 38.90477 | -75.23166 | 35819 ft | 370 kts | 289° |
| 2026-05-07 01:24 | 38.91715 | -75.26131 | 35627 ft | 377 kts | 297° |
| 2026-05-07 01:24 | 38.93413 | -75.28760 | 35381 ft | 390 kts | 306° |
| 2026-05-07 01:24 | 38.95558 | -75.31028 | 35033 ft | 408 kts | 314° |
| 2026-05-07 01:25 | 38.98129 | -75.32864 | 34621 ft | 428 kts | 324° |
| 2026-05-07 01:25 | 39.01015 | -75.34129 | 34382 ft | 445 kts | 333° |
| 2026-05-07 01:25 | 39.04165 | -75.34804 | 34000 ft | 467 kts | 342° |
| 2026-05-07 01:25 | 39.07468 | -75.34881 | 33530 ft | 486 kts | 348° |
| 2026-05-07 01:26 | 39.10885 | -75.34756 | 33247 ft | 487 kts | 349° |
| 2026-05-07 01:26 | 39.17637 | -75.34495 | 32957 ft | 485 kts | 348° |
| 2026-05-07 01:26 | 39.21066 | -75.34371 | 32759 ft | 486 kts | 348° |
| 2026-05-07 01:27 | 39.24424 | -75.34244 | 32746 ft | 482 kts | 348° |
| 2026-05-07 01:27 | 39.27804 | -75.34000 | 32481 ft | 494 kts | 354° |
| 2026-05-07 01:27 | 39.31256 | -75.33139 | 32318 ft | 511 kts | 2° |
| 2026-05-07 01:27 | 39.34698 | -75.31571 | 32229 ft | 526 kts | 12° |
| 2026-05-07 01:28 | 39.37989 | -75.29347 | 32089 ft | 541 kts | 21° |
| 2026-05-07 01:28 | 39.41092 | -75.26478 | 31929 ft | 555 kts | 30° |
| 2026-05-07 01:28 | 39.43905 | -75.23029 | 31883 ft | 565 kts | 40° |
| 2026-05-07 01:29 | 39.48479 | -75.14542 | 31877 ft | 582 kts | 58° |
| 2026-05-07 01:29 | 39.51252 | -75.04559 | 31875 ft | 594 kts | 75° |
| 2026-05-07 01:30 | 39.51962 | -74.93919 | 31880 ft | 595 kts | 93° |
| 2026-05-07 01:30 | 39.51324 | -74.88662 | 31887 ft | 588 kts | 110° |
| 2026-05-07 01:30 | 39.49712 | -74.83810 | 31888 ft | 578 kts | 127° |
| 2026-05-07 01:30 | 39.47274 | -74.79775 | 31888 ft | 559 kts | 145° |
| 2026-05-07 01:31 | 39.44217 | -74.76804 | 31885 ft | 533 kts | 162° |
| 2026-05-07 01:31 | 39.40886 | -74.75126 | 31885 ft | 504 kts | 179° |
| 2026-05-07 01:31 | 39.37511 | -74.74724 | 31884 ft | 474 kts | 196° |
| 2026-05-07 01:31 | 39.34281 | -74.75355 | 31863 ft | 460 kts | 203° |
| 2026-05-07 01:32 | 39.31132 | -74.76128 | 31872 ft | 460 kts | 203° |
| 2026-05-07 01:32 | 39.25044 | -74.78327 | 31876 ft | 439 kts | 215° |
| 2026-05-07 01:33 | 39.19402 | -74.81530 | 31883 ft | 440 kts | 214° |
| 2026-05-07 01:33 | 39.13784 | -74.84689 | 31887 ft | 439 kts | 215° |
| 2026-05-07 01:34 | 39.08170 | -74.87835 | 31888 ft | 439 kts | 214° |
| 2026-05-07 01:34 | 39.02501 | -74.91002 | 31890 ft | 439 kts | 214° |
| 2026-05-07 01:35 | 38.96885 | -74.94131 | 31892 ft | 439 kts | 214° |
| 2026-05-07 01:35 | 38.91252 | -74.97261 | 31888 ft | 440 kts | 214° |
| 2026-05-07 01:36 | 38.85603 | -75.00394 | 31875 ft | 441 kts | 214° |
| 2026-05-07 01:36 | 38.79937 | -75.03527 | 31878 ft | 440 kts | 214° |
| 2026-05-07 01:37 | 38.74270 | -75.06655 | 31880 ft | 441 kts | 214° |
| 2026-05-07 01:37 | 38.68565 | -75.09797 | 31892 ft | 441 kts | 214° |
| 2026-05-07 01:38 | 38.62894 | -75.12916 | 31892 ft | 442 kts | 213° |
| 2026-05-07 01:38 | 38.57217 | -75.16032 | 31895 ft | 443 kts | 213° |
| 2026-05-07 01:39 | 38.51536 | -75.19142 | 31899 ft | 443 kts | 213° |
| 2026-05-07 01:39 | 38.45822 | -75.22266 | 31902 ft | 443 kts | 214° |
| 2026-05-07 01:40 | 38.40092 | -75.25394 | 31904 ft | 445 kts | 213° |
| 2026-05-07 01:40 | 38.34379 | -75.28506 | 31901 ft | 446 kts | 213° |
| 2026-05-07 01:41 | 38.28641 | -75.31627 | 31905 ft | 447 kts | 213° |
| 2026-05-07 01:41 | 38.22892 | -75.34747 | 31903 ft | 447 kts | 213° |
| 2026-05-07 01:42 | 38.17153 | -75.37856 | 31903 ft | 446 kts | 213° |
| 2026-05-07 01:42 | 38.11395 | -75.40972 | 31905 ft | 447 kts | 213° |
| 2026-05-07 01:43 | 38.05824 | -75.44404 | 31903 ft | 437 kts | 221° |
| 2026-05-07 01:43 | 38.01113 | -75.49165 | 31904 ft | 426 kts | 231° |
| 2026-05-07 01:44 | 37.96742 | -75.54294 | 31902 ft | 426 kts | 231° |
| 2026-05-07 01:44 | 37.92386 | -75.59390 | 31907 ft | 426 kts | 231° |
| 2026-05-07 01:45 | 37.88013 | -75.64499 | 31909 ft | 425 kts | 231° |
| 2026-05-07 01:45 | 37.83643 | -75.69597 | 31914 ft | 427 kts | 230° |
| 2026-05-07 01:46 | 37.79253 | -75.74709 | 31913 ft | 428 kts | 231° |
| 2026-05-07 01:46 | 37.74837 | -75.79841 | 31915 ft | 429 kts | 230° |
| 2026-05-07 01:47 | 37.70426 | -75.84958 | 31910 ft | 428 kts | 230° |
| 2026-05-07 01:47 | 37.66024 | -75.90056 | 31912 ft | 428 kts | 230° |
| 2026-05-07 01:48 | 37.61691 | -75.95068 | 31911 ft | 428 kts | 231° |
| 2026-05-07 01:48 | 37.57990 | -76.00356 | 31906 ft | 421 kts | 237° |
| 2026-05-07 01:49 | 37.54302 | -76.06098 | 31907 ft | 422 kts | 238° |
| 2026-05-07 01:49 | 37.50591 | -76.11861 | 31906 ft | 422 kts | 237° |
| 2026-05-07 01:50 | 37.46875 | -76.17620 | 31906 ft | 421 kts | 237° |
| 2026-05-07 01:50 | 37.43180 | -76.23332 | 31749 ft | 409 kts | 237° |
| 2026-05-07 01:50 | 37.41381 | -76.26099 | 31220 ft | 398 kts | 237° |
| 2026-05-07 01:51 | 37.39628 | -76.28805 | 30159 ft | 402 kts | 237° |
| 2026-05-07 01:51 | 37.37866 | -76.31530 | 28762 ft | 412 kts | 236° |
| 2026-05-07 01:51 | 37.36035 | -76.34359 | 27368 ft | 418 kts | 236° |
| 2026-05-07 01:51 | 37.34210 | -76.37168 | 26486 ft | 415 kts | 236° |
| 2026-05-07 01:52 | 37.32356 | -76.40018 | 25809 ft | 411 kts | 236° |
| 2026-05-07 01:52 | 37.30571 | -76.42754 | 25168 ft | 401 kts | 236° |
| 2026-05-07 01:52 | 37.28803 | -76.45467 | 24519 ft | 396 kts | 236° |
| 2026-05-07 01:52 | 37.27073 | -76.48119 | 23890 ft | 392 kts | 236° |
| 2026-05-07 01:53 | 37.25346 | -76.50784 | 23254 ft | 389 kts | 236° |
| 2026-05-07 01:53 | 37.23661 | -76.53419 | 22640 ft | 387 kts | 237° |
| 2026-05-07 01:53 | 37.21947 | -76.56095 | 22019 ft | 384 kts | 236° |
| 2026-05-07 01:53 | 37.20286 | -76.58687 | 21418 ft | 381 kts | 236° |
| 2026-05-07 01:54 | 37.18637 | -76.61258 | 20821 ft | 378 kts | 236° |
| 2026-05-07 01:54 | 37.16983 | -76.63835 | 20249 ft | 374 kts | 237° |
| 2026-05-07 01:54 | 37.15359 | -76.66363 | 19977 ft | 371 kts | 236° |
| 2026-05-07 01:54 | 37.13721 | -76.68913 | 19913 ft | 370 kts | 236° |
| 2026-05-07 01:55 | 37.12100 | -76.71435 | 19911 ft | 371 kts | 236° |
| 2026-05-07 01:55 | 37.10478 | -76.73957 | 19914 ft | 373 kts | 236° |
| 2026-05-07 01:55 | 37.08843 | -76.76489 | 19919 ft | 374 kts | 236° |
| 2026-05-07 01:55 | 37.07183 | -76.79024 | 19925 ft | 375 kts | 236° |
| 2026-05-07 01:56 | 37.05502 | -76.81585 | 19927 ft | 375 kts | 236° |
| 2026-05-07 01:56 | 37.03847 | -76.84105 | 19925 ft | 374 kts | 236° |
| 2026-05-07 01:56 | 37.02171 | -76.86655 | 19932 ft | 374 kts | 236° |
| 2026-05-07 01:56 | 37.00509 | -76.89182 | 19929 ft | 374 kts | 236° |
| 2026-05-07 01:57 | 36.98852 | -76.91701 | 19930 ft | 374 kts | 236° |
| 2026-05-07 01:57 | 36.97191 | -76.94222 | 19929 ft | 374 kts | 236° |
| 2026-05-07 01:57 | 36.95511 | -76.96773 | 19933 ft | 374 kts | 236° |
| 2026-05-07 01:57 | 36.93858 | -76.99277 | 19932 ft | 374 kts | 236° |
| 2026-05-07 01:58 | 36.92194 | -77.01799 | 19930 ft | 373 kts | 236° |
| 2026-05-07 01:58 | 36.90573 | -77.04245 | 19935 ft | 355 kts | 237° |
| 2026-05-07 01:58 | 36.89033 | -77.06557 | 19935 ft | 331 kts | 237° |
| 2026-05-07 01:58 | 36.87589 | -77.08727 | 19930 ft | 310 kts | 237° |
| 2026-05-07 01:59 | 36.86254 | -77.10734 | 19933 ft | 293 kts | 238° |
| 2026-05-07 01:59 | 36.84940 | -77.12723 | 19930 ft | 295 kts | 238° |
| 2026-05-07 01:59 | 36.83637 | -77.14698 | 19927 ft | 296 kts | 237° |
| 2026-05-07 01:59 | 36.82310 | -77.16703 | 19928 ft | 296 kts | 238° |
| 2026-05-07 02:00 | 36.80986 | -77.18704 | 19931 ft | 296 kts | 237° |
| 2026-05-07 02:00 | 36.79670 | -77.20691 | 19929 ft | 297 kts | 237° |
| 2026-05-07 02:00 | 36.78336 | -77.22703 | 19929 ft | 297 kts | 238° |
| 2026-05-07 02:00 | 36.77000 | -77.24715 | 19930 ft | 297 kts | 237° |
| 2026-05-07 02:01 | 36.75689 | -77.26690 | 19930 ft | 297 kts | 237° |
| 2026-05-07 02:01 | 36.74346 | -77.28710 | 19927 ft | 297 kts | 237° |
| 2026-05-07 02:01 | 36.73013 | -77.30714 | 19924 ft | 297 kts | 237° |
| 2026-05-07 02:01 | 36.71701 | -77.32685 | 19925 ft | 297 kts | 237° |
| 2026-05-07 02:02 | 36.70364 | -77.34693 | 19921 ft | 297 kts | 238° |
| 2026-05-07 02:02 | 36.69035 | -77.36687 | 19922 ft | 298 kts | 237° |
| 2026-05-07 02:02 | 36.67710 | -77.38673 | 19923 ft | 298 kts | 237° |
| 2026-05-07 02:02 | 36.66370 | -77.40680 | 19925 ft | 298 kts | 238° |
| 2026-05-07 02:03 | 36.65052 | -77.42653 | 19925 ft | 297 kts | 237° |
| 2026-05-07 02:03 | 36.63710 | -77.44662 | 19918 ft | 298 kts | 237° |
| 2026-05-07 02:03 | 36.62357 | -77.46688 | 19589 ft | 302 kts | 237° |
| 2026-05-07 02:03 | 36.61031 | -77.48666 | 19148 ft | 298 kts | 237° |
| 2026-05-07 02:04 | 36.59702 | -77.50648 | 18694 ft | 293 kts | 238° |
| 2026-05-07 02:04 | 36.58388 | -77.52605 | 18242 ft | 289 kts | 237° |
| 2026-05-07 02:04 | 36.57108 | -77.54511 | 17968 ft | 283 kts | 237° |
| 2026-05-07 02:04 | 36.55836 | -77.56409 | 17921 ft | 285 kts | 238° |
| 2026-05-07 02:05 | 36.54563 | -77.58307 | 17922 ft | 286 kts | 238° |
| 2026-05-07 02:05 | 36.53285 | -77.60212 | 17923 ft | 286 kts | 238° |
| 2026-05-07 02:05 | 36.51994 | -77.62133 | 17926 ft | 286 kts | 238° |
| 2026-05-07 02:05 | 36.50710 | -77.64044 | 17924 ft | 287 kts | 238° |
| 2026-05-07 02:06 | 36.49413 | -77.65972 | 17926 ft | 287 kts | 237° |
| 2026-05-07 02:06 | 36.48135 | -77.67871 | 17929 ft | 288 kts | 237° |
| 2026-05-07 02:06 | 36.46842 | -77.69792 | 17930 ft | 288 kts | 237° |
| 2026-05-07 02:06 | 36.45542 | -77.71721 | 17925 ft | 287 kts | 237° |
| 2026-05-07 02:07 | 36.44258 | -77.73624 | 17926 ft | 287 kts | 236° |
| 2026-05-07 02:07 | 36.41672 | -77.77456 | 17928 ft | 286 kts | 237° |
| 2026-05-07 02:07 | 36.40370 | -77.79383 | 17927 ft | 286 kts | 236° |
| 2026-05-07 02:08 | 36.39092 | -77.81274 | 17925 ft | 287 kts | 236° |
| 2026-05-07 02:08 | 36.37801 | -77.83183 | 17924 ft | 287 kts | 236° |
| 2026-05-07 02:08 | 36.36504 | -77.85100 | 17924 ft | 285 kts | 236° |
| 2026-05-07 02:08 | 36.35239 | -77.86966 | 17925 ft | 281 kts | 236° |
| 2026-05-07 02:09 | 36.33969 | -77.88837 | 17925 ft | 277 kts | 237° |
| 2026-05-07 02:09 | 36.32743 | -77.90642 | 17855 ft | 268 kts | 236° |
| 2026-05-07 02:09 | 36.31547 | -77.92403 | 17445 ft | 271 kts | 236° |
| 2026-05-07 02:09 | 36.30297 | -77.94257 | 17034 ft | 282 kts | 236° |
| 2026-05-07 02:10 | 36.29018 | -77.96146 | 16948 ft | 289 kts | 236° |
| 2026-05-07 02:10 | 36.27696 | -77.98096 | 16955 ft | 293 kts | 235° |
| 2026-05-07 02:10 | 36.26425 | -78.00069 | 16967 ft | 292 kts | 240° |
| 2026-05-07 02:10 | 36.25308 | -78.02219 | 16971 ft | 292 kts | 242° |
| 2026-05-07 02:11 | 36.24224 | -78.04336 | 16975 ft | 293 kts | 242° |
| 2026-05-07 02:11 | 36.23118 | -78.06486 | 16979 ft | 291 kts | 242° |
| 2026-05-07 02:11 | 36.22045 | -78.08563 | 16971 ft | 273 kts | 242° |
| 2026-05-07 02:11 | 36.21041 | -78.10510 | 16784 ft | 262 kts | 243° |
| 2026-05-07 02:12 | 36.20264 | -78.12504 | 16540 ft | 252 kts | 251° |
| 2026-05-07 02:12 | 36.19609 | -78.14499 | 16280 ft | 246 kts | 251° |
| 2026-05-07 02:12 | 36.18961 | -78.16454 | 15854 ft | 242 kts | 250° |
| 2026-05-07 02:12 | 36.18324 | -78.18373 | 15243 ft | 246 kts | 250° |
| 2026-05-07 02:13 | 36.17665 | -78.20358 | 14525 ft | 252 kts | 250° |
| 2026-05-07 02:13 | 36.16983 | -78.22411 | 13569 ft | 265 kts | 250° |
| 2026-05-07 02:13 | 36.16271 | -78.24548 | 12337 ft | 283 kts | 249° |
| 2026-05-07 02:13 | 36.15337 | -78.26697 | 11655 ft | 280 kts | 232° |
| 2026-05-07 02:14 | 36.13741 | -78.28045 | 11302 ft | 284 kts | 205° |
| 2026-05-07 02:14 | 36.11750 | -78.28257 | 10867 ft | 298 kts | 177° |
| 2026-05-07 02:14 | 36.09788 | -78.27255 | 10373 ft | 312 kts | 153° |
| 2026-05-07 02:14 | 36.08006 | -78.25751 | 10042 ft | 307 kts | 151° |
| 2026-05-07 02:15 | 36.06231 | -78.24208 | 9979 ft | 311 kts | 150° |
| 2026-05-07 02:15 | 36.04436 | -78.22646 | 9983 ft | 311 kts | 150° |
| 2026-05-07 02:15 | 36.02667 | -78.21116 | 9988 ft | 312 kts | 150° |
| 2026-05-07 02:15 | 36.00861 | -78.19565 | 9985 ft | 312 kts | 150° |
| 2026-05-07 02:16 | 35.99053 | -78.18015 | 9987 ft | 313 kts | 150° |
| 2026-05-07 02:16 | 35.97250 | -78.16469 | 9985 ft | 313 kts | 150° |
| 2026-05-07 02:16 | 35.95468 | -78.14914 | 9988 ft | 314 kts | 147° |
| 2026-05-07 02:16 | 35.93987 | -78.12865 | 9994 ft | 322 kts | 121° |
| 2026-05-07 02:17 | 35.93373 | -78.10184 | 9992 ft | 326 kts | 92° |
| 2026-05-07 02:17 | 35.93768 | -78.07478 | 9992 ft | 323 kts | 64° |
| 2026-05-07 02:17 | 35.94756 | -78.04932 | 9977 ft | 323 kts | 60° |
| 2026-05-07 02:17 | 35.95931 | -78.02600 | 9992 ft | 316 kts | 42° |
| 2026-05-07 02:18 | 35.97691 | -78.01109 | 9989 ft | 301 kts | 13° |
| 2026-05-07 02:18 | 35.99717 | -78.00763 | 9985 ft | 288 kts | 352° |
| 2026-05-07 02:18 | 36.01741 | -78.00863 | 9982 ft | 288 kts | 350° |
| 2026-05-07 02:18 | 36.03760 | -78.00996 | 9982 ft | 288 kts | 350° |
| 2026-05-07 02:19 | 36.05778 | -78.01131 | 9981 ft | 288 kts | 349° |
| 2026-05-07 02:19 | 36.07759 | -78.01459 | 9980 ft | 284 kts | 343° |
| 2026-05-07 02:19 | 36.09721 | -78.01894 | 9976 ft | 285 kts | 343° |
| 2026-05-07 02:19 | 36.11690 | -78.02325 | 9978 ft | 285 kts | 343° |
| 2026-05-07 02:20 | 36.13672 | -78.02758 | 9980 ft | 285 kts | 343° |
| 2026-05-07 02:20 | 36.15610 | -78.03181 | 9971 ft | 285 kts | 343° |
| 2026-05-07 02:20 | 36.17582 | -78.03627 | 9967 ft | 284 kts | 340° |
| 2026-05-07 02:20 | 36.19351 | -78.04622 | 9968 ft | 271 kts | 317° |
| 2026-05-07 02:21 | 36.20549 | -78.06333 | 9932 ft | 246 kts | 294° |
| 2026-05-07 02:21 | 36.21024 | -78.08236 | 9957 ft | 218 kts | 275° |
| 2026-05-07 02:21 | 36.20972 | -78.10090 | 9963 ft | 215 kts | 260° |
| 2026-05-07 02:21 | 36.20550 | -78.11867 | 9965 ft | 215 kts | 251° |
| 2026-05-07 02:22 | 36.19973 | -78.13590 | 9963 ft | 215 kts | 250° |
| 2026-05-07 02:22 | 36.19388 | -78.15335 | 9996 ft | 216 kts | 250° |
| 2026-05-07 02:22 | 36.18814 | -78.17046 | 9978 ft | 216 kts | 250° |
| 2026-05-07 02:22 | 36.18227 | -78.18797 | 9795 ft | 219 kts | 251° |
| 2026-05-07 02:23 | 36.17638 | -78.20554 | 9508 ft | 218 kts | 251° |
| 2026-05-07 02:23 | 36.17063 | -78.22263 | 9218 ft | 214 kts | 250° |
| 2026-05-07 02:23 | 36.16501 | -78.23933 | 8955 ft | 204 kts | 250° |
| 2026-05-07 02:23 | 36.15947 | -78.25579 | 8685 ft | 207 kts | 250° |
| 2026-05-07 02:24 | 36.15392 | -78.27233 | 8388 ft | 209 kts | 250° |
| 2026-05-07 02:24 | 36.14892 | -78.28931 | 7811 ft | 209 kts | 257° |
| 2026-05-07 02:24 | 36.14582 | -78.30660 | 7255 ft | 205 kts | 259° |
| 2026-05-07 02:24 | 36.14281 | -78.32378 | 6661 ft | 200 kts | 258° |
| 2026-05-07 02:25 | 36.13988 | -78.34037 | 6379 ft | 193 kts | 258° |
| 2026-05-07 02:25 | 36.13708 | -78.35625 | 5849 ft | 190 kts | 258° |
| 2026-05-07 02:25 | 36.13425 | -78.37231 | 5219 ft | 189 kts | 257° |
| 2026-05-07 02:25 | 36.13153 | -78.38779 | 4991 ft | 186 kts | 257° |
| 2026-05-07 02:26 | 36.12870 | -78.40391 | 4985 ft | 195 kts | 257° |
| 2026-05-07 02:26 | 36.12586 | -78.42051 | 4976 ft | 196 kts | 257° |
| 2026-05-07 02:26 | 36.12309 | -78.43716 | 4974 ft | 197 kts | 258° |
| 2026-05-07 02:26 | 36.12025 | -78.45393 | 4973 ft | 197 kts | 258° |
| 2026-05-07 02:27 | 36.11740 | -78.47054 | 4975 ft | 198 kts | 257° |
| 2026-05-07 02:27 | 36.11317 | -78.48667 | 4953 ft | 190 kts | 245° |
| 2026-05-07 02:27 | 36.10574 | -78.49949 | 4965 ft | 175 kts | 231° |
| 2026-05-07 02:27 | 36.09714 | -78.51001 | 4967 ft | 171 kts | 227° |
| 2026-05-07 02:28 | 36.08848 | -78.52003 | 4972 ft | 168 kts | 227° |
| 2026-05-07 02:28 | 36.08010 | -78.53000 | 4976 ft | 167 kts | 230° |
| 2026-05-07 02:28 | 36.07186 | -78.54028 | 5005 ft | 166 kts | 230° |
| 2026-05-07 02:28 | 36.06373 | -78.55051 | 4996 ft | 167 kts | 230° |
| 2026-05-07 02:29 | 36.05550 | -78.56081 | 4981 ft | 167 kts | 229° |
| 2026-05-07 02:29 | 36.04721 | -78.57114 | 4919 ft | 168 kts | 230° |
| 2026-05-07 02:29 | 36.03893 | -78.58144 | 4690 ft | 167 kts | 229° |
| 2026-05-07 02:29 | 36.03068 | -78.59166 | 4486 ft | 168 kts | 229° |
| 2026-05-07 02:30 | 36.02245 | -78.60190 | 4266 ft | 166 kts | 229° |
| 2026-05-07 02:30 | 36.01429 | -78.61201 | 4054 ft | 164 kts | 229° |
| 2026-05-07 02:30 | 36.00621 | -78.62205 | 3836 ft | 163 kts | 229° |
| 2026-05-07 02:30 | 35.99843 | -78.63168 | 3631 ft | 152 kts | 229° |
| 2026-05-07 02:31 | 35.99129 | -78.64050 | 3411 ft | 136 kts | 229° |
| 2026-05-07 02:31 | 35.98502 | -78.64821 | 3277 ft | 117 kts | 230° |
| 2026-05-07 02:31 | 35.97920 | -78.65544 | 3105 ft | 118 kts | 230° |
| 2026-05-07 02:31 | 35.97364 | -78.66240 | 2979 ft | 115 kts | 229° |
| 2026-05-07 02:32 | 35.96788 | -78.66962 | 2818 ft | 123 kts | 229° |
| 2026-05-07 02:32 | 35.96135 | -78.67780 | 2654 ft | 136 kts | 229° |
| 2026-05-07 02:32 | 35.95444 | -78.68639 | 2475 ft | 145 kts | 227° |
| 2026-05-07 02:32 | 35.94690 | -78.69570 | 2272 ft | 158 kts | 227° |
| 2026-05-07 02:33 | 35.93900 | -78.70541 | 2051 ft | 154 kts | 226° |
| 2026-05-07 02:33 | 35.93185 | -78.71420 | 1878 ft | 133 kts | 226° |
| 2026-05-07 02:33 | 35.92558 | -78.72195 | 1688 ft | 124 kts | 226° |
| 2026-05-07 02:33 | 35.91953 | -78.72945 | 1526 ft | 122 kts | 226° |
| 2026-05-07 02:34 | 35.91471 | -78.73544 | 1410 ft | 122 kts | 226° |
| 2026-05-07 02:34 | 35.90864 | -78.74292 | 1279 ft | 121 kts | 226° |
| 2026-05-07 02:34 | 35.90255 | -78.75047 | 1105 ft | 125 kts | 226° |
| 2026-05-07 02:34 | 35.89637 | -78.75813 | 945 ft | 126 kts | 225° |
| 2026-05-07 02:35 | 35.89001 | -78.76599 | 763 ft | 129 kts | 225° |
| 2026-05-07 02:35 | 35.88364 | -78.77384 | 579 ft | 130 kts | 224° |
| 2026-05-07 02:35 | 35.87720 | -78.78180 | 432 ft | 124 kts | 224° |
| 2026-05-07 02:35 | 35.87221 | -78.78786 | 423 ft | 69 kts | 227° |
| 2026-05-07 02:36 | 35.87026 | -78.79037 | 414 ft | 18 kts | 234° |
| 2026-05-07 02:36 | 35.87049 | -78.79116 | 413 ft | 3 kts | 314° |
| 2026-05-07 02:36 | 35.87066 | -78.79137 | 413 ft | 0 kts | 314° |
| 2026-05-07 02:37 | 35.87079 | -78.79144 | 413 ft | 5 kts | 358° |
| 2026-05-07 02:37 | 35.87130 | -78.79102 | 415 ft | 10 kts | 44° |
| 2026-05-07 02:37 | 35.87190 | -78.79029 | 417 ft | 13 kts | 45° |
| 2026-05-07 02:38 | 35.87265 | -78.78937 | 419 ft | 16 kts | 45° |
| 2026-05-07 02:38 | 35.87348 | -78.78835 | 424 ft | 17 kts | 45° |
| 2026-05-07 02:38 | 35.87429 | -78.78735 | 425 ft | 0 kts | 45° |
| 2026-05-07 02:38 | 35.87450 | -78.78707 | 426 ft | 14 kts | 46° |
| 2026-05-07 02:39 | 35.87535 | -78.78603 | 428 ft | 19 kts | 45° |
| 2026-05-07 02:39 | 35.87631 | -78.78504 | 428 ft | 12 kts | 352° |
| 2026-05-07 02:39 | 35.87717 | -78.78483 | 428 ft | 14 kts | 49° |
| 2026-05-07 02:39 | 35.87771 | -78.78415 | 429 ft | 17 kts | 45° |
| 2026-05-07 02:40 | 35.87854 | -78.78405 | 429 ft | 15 kts | 312° |
| 2026-05-07 02:40 | 35.87946 | -78.78503 | 425 ft | 10 kts | 351° |
| 2026-05-07 02:40 | 35.88000 | -78.78556 | 422 ft | 4 kts | 4° |
| 2026-05-07 02:40 | 35.88025 | -78.78513 | 422 ft | 7 kts | 122° |
| 2026-05-07 02:41 | 35.88020 | -78.78509 | 423 ft | 2 kts | 167° |